sensor_id;sensor_type;location;lat;lon;timestamp;P1;durP1;ratioP1;P2;durP2;ratioP2
12665;SDS011;58531;59.050;17.416;2023-04-25T00:00:21;4.87;;;4.20;;
12665;SDS011;58531;59.050;17.416;2023-04-25T00:02:47;7.47;;;4.10;;
12665;SDS011;58531;59.050;17.416;2023-04-25T00:05:14;6.10;;;4.83;;
12665;SDS011;58531;59.050;17.416;2023-04-25T00:07:41;6.93;;;4.97;;
12665;SDS011;58531;59.050;17.416;2023-04-25T00:10:09;6.77;;;4.83;;
12665;SDS011;58531;59.050;17.416;2023-04-25T00:12:37;5.70;;;4.57;;
12665;SDS011;58531;59.050;17.416;2023-04-25T00:15:04;6.90;;;5.87;;
12665;SDS011;58531;59.050;17.416;2023-04-25T00:17:33;5.77;;;4.83;;
12665;SDS011;58531;59.050;17.416;2023-04-25T00:20:01;7.87;;;4.90;;
12665;SDS011;58531;59.050;17.416;2023-04-25T00:22:32;4.80;;;4.03;;
12665;SDS011;58531;59.050;17.416;2023-04-25T00:25:02;6.27;;;4.67;;
12665;SDS011;58531;59.050;17.416;2023-04-25T00:27:29;6.37;;;4.47;;
12665;SDS011;58531;59.050;17.416;2023-04-25T00:29:56;6.27;;;4.00;;
12665;SDS011;58531;59.050;17.416;2023-04-25T00:32:23;5.60;;;4.17;;
12665;SDS011;58531;59.050;17.416;2023-04-25T00:34:51;6.47;;;4.50;;
12665;SDS011;58531;59.050;17.416;2023-04-25T00:37:18;9.07;;;5.27;;
12665;SDS011;58531;59.050;17.416;2023-04-25T00:39:45;7.90;;;4.70;;
12665;SDS011;58531;59.050;17.416;2023-04-25T00:42:12;6.37;;;4.60;;
12665;SDS011;58531;59.050;17.416;2023-04-25T00:44:40;5.77;;;4.33;;
12665;SDS011;58531;59.050;17.416;2023-04-25T00:47:08;7.27;;;4.33;;
12665;SDS011;58531;59.050;17.416;2023-04-25T00:49:37;5.77;;;4.07;;
12665;SDS011;58531;59.050;17.416;2023-04-25T00:52:05;6.13;;;3.87;;
12665;SDS011;58531;59.050;17.416;2023-04-25T00:54:32;7.20;;;4.03;;
12665;SDS011;58531;59.050;17.416;2023-04-25T00:56:59;6.43;;;4.33;;
12665;SDS011;58531;59.050;17.416;2023-04-25T00:59:27;4.43;;;3.90;;
12665;SDS011;58531;59.050;17.416;2023-04-25T01:01:55;7.37;;;4.30;;
12665;SDS011;58531;59.050;17.416;2023-04-25T01:04:23;6.80;;;3.87;;
12665;SDS011;58531;59.050;17.416;2023-04-25T01:06:49;4.93;;;3.87;;
12665;SDS011;58531;59.050;17.416;2023-04-25T01:09:19;4.67;;;3.47;;
12665;SDS011;58531;59.050;17.416;2023-04-25T01:11:46;5.30;;;3.30;;
12665;SDS011;58531;59.050;17.416;2023-04-25T01:14:13;4.43;;;3.80;;
12665;SDS011;58531;59.050;17.416;2023-04-25T01:16:40;4.77;;;3.70;;
12665;SDS011;58531;59.050;17.416;2023-04-25T01:19:08;7.20;;;4.30;;
12665;SDS011;58531;59.050;17.416;2023-04-25T01:21:38;6.17;;;4.20;;
12665;SDS011;58531;59.050;17.416;2023-04-25T01:24:05;5.87;;;4.23;;
12665;SDS011;58531;59.050;17.416;2023-04-25T01:26:33;9.03;;;4.43;;
12665;SDS011;58531;59.050;17.416;2023-04-25T01:29:01;6.90;;;4.40;;
12665;SDS011;58531;59.050;17.416;2023-04-25T01:31:29;6.57;;;3.93;;
12665;SDS011;58531;59.050;17.416;2023-04-25T01:33:57;5.57;;;4.57;;
12665;SDS011;58531;59.050;17.416;2023-04-25T01:36:24;5.47;;;4.00;;
12665;SDS011;58531;59.050;17.416;2023-04-25T01:38:53;5.27;;;4.20;;
12665;SDS011;58531;59.050;17.416;2023-04-25T01:41:21;6.67;;;4.90;;
12665;SDS011;58531;59.050;17.416;2023-04-25T01:43:48;6.03;;;4.43;;
12665;SDS011;58531;59.050;17.416;2023-04-25T01:46:16;6.73;;;4.50;;
12665;SDS011;58531;59.050;17.416;2023-04-25T01:48:43;6.87;;;4.30;;
12665;SDS011;58531;59.050;17.416;2023-04-25T01:51:09;5.63;;;4.07;;
12665;SDS011;58531;59.050;17.416;2023-04-25T01:53:37;6.30;;;4.37;;
12665;SDS011;58531;59.050;17.416;2023-04-25T01:56:06;6.93;;;4.53;;
12665;SDS011;58531;59.050;17.416;2023-04-25T01:58:33;4.97;;;3.80;;
12665;SDS011;58531;59.050;17.416;2023-04-25T02:01:00;5.37;;;3.87;;
12665;SDS011;58531;59.050;17.416;2023-04-25T02:03:27;5.40;;;3.97;;
12665;SDS011;58531;59.050;17.416;2023-04-25T02:05:53;5.40;;;3.87;;
12665;SDS011;58531;59.050;17.416;2023-04-25T02:08:20;4.70;;;3.30;;
12665;SDS011;58531;59.050;17.416;2023-04-25T02:10:47;4.17;;;3.50;;
12665;SDS011;58531;59.050;17.416;2023-04-25T02:13:15;3.90;;;3.20;;
12665;SDS011;58531;59.050;17.416;2023-04-25T02:15:42;4.17;;;3.07;;
12665;SDS011;58531;59.050;17.416;2023-04-25T02:18:09;3.37;;;2.50;;
12665;SDS011;58531;59.050;17.416;2023-04-25T02:20:36;4.43;;;3.10;;
12665;SDS011;58531;59.050;17.416;2023-04-25T02:23:03;3.47;;;2.70;;
12665;SDS011;58531;59.050;17.416;2023-04-25T02:25:30;3.63;;;2.53;;
12665;SDS011;58531;59.050;17.416;2023-04-25T02:27:57;3.90;;;2.50;;
12665;SDS011;58531;59.050;17.416;2023-04-25T02:30:25;4.27;;;2.80;;
12665;SDS011;58531;59.050;17.416;2023-04-25T02:32:52;4.00;;;2.70;;
12665;SDS011;58531;59.050;17.416;2023-04-25T02:35:19;3.83;;;2.80;;
12665;SDS011;58531;59.050;17.416;2023-04-25T02:37:46;5.40;;;2.70;;
12665;SDS011;58531;59.050;17.416;2023-04-25T02:40:12;3.43;;;2.30;;
12665;SDS011;58531;59.050;17.416;2023-04-25T02:42:39;4.40;;;2.67;;
12665;SDS011;58531;59.050;17.416;2023-04-25T02:45:06;4.03;;;2.67;;
12665;SDS011;58531;59.050;17.416;2023-04-25T02:47:35;3.47;;;2.20;;
12665;SDS011;58531;59.050;17.416;2023-04-25T02:50:03;2.80;;;2.07;;
12665;SDS011;58531;59.050;17.416;2023-04-25T02:52:30;2.53;;;2.20;;
12665;SDS011;58531;59.050;17.416;2023-04-25T02:54:57;2.33;;;1.77;;
12665;SDS011;58531;59.050;17.416;2023-04-25T02:57:23;2.70;;;2.00;;
12665;SDS011;58531;59.050;17.416;2023-04-25T02:59:50;2.13;;;1.60;;
12665;SDS011;58531;59.050;17.416;2023-04-25T03:02:17;1.80;;;1.60;;
12665;SDS011;58531;59.050;17.416;2023-04-25T03:04:45;1.77;;;1.47;;
12665;SDS011;58531;59.050;17.416;2023-04-25T03:07:13;2.57;;;1.60;;
12665;SDS011;58531;59.050;17.416;2023-04-25T03:09:39;2.20;;;1.80;;
12665;SDS011;58531;59.050;17.416;2023-04-25T03:12:06;2.03;;;1.53;;
12665;SDS011;58531;59.050;17.416;2023-04-25T03:14:33;2.00;;;1.50;;
12665;SDS011;58531;59.050;17.416;2023-04-25T03:17:00;1.73;;;1.40;;
12665;SDS011;58531;59.050;17.416;2023-04-25T03:19:26;2.00;;;1.50;;
12665;SDS011;58531;59.050;17.416;2023-04-25T03:21:55;2.57;;;1.70;;
12665;SDS011;58531;59.050;17.416;2023-04-25T03:24:21;2.47;;;1.90;;
12665;SDS011;58531;59.050;17.416;2023-04-25T03:26:48;2.13;;;1.80;;
12665;SDS011;58531;59.050;17.416;2023-04-25T03:29:15;2.20;;;1.77;;
12665;SDS011;58531;59.050;17.416;2023-04-25T03:31:42;2.83;;;2.07;;
12665;SDS011;58531;59.050;17.416;2023-04-25T03:34:09;3.17;;;1.97;;
12665;SDS011;58531;59.050;17.416;2023-04-25T03:36:35;1.90;;;1.70;;
12665;SDS011;58531;59.050;17.416;2023-04-25T03:39:04;1.60;;;1.20;;
12665;SDS011;58531;59.050;17.416;2023-04-25T03:41:31;1.93;;;1.37;;
12665;SDS011;58531;59.050;17.416;2023-04-25T03:43:58;1.27;;;1.10;;
12665;SDS011;58531;59.050;17.416;2023-04-25T03:46:24;1.30;;;1.20;;
12665;SDS011;58531;59.050;17.416;2023-04-25T03:48:51;1.50;;;1.10;;
12665;SDS011;58531;59.050;17.416;2023-04-25T03:51:18;1.80;;;1.33;;
12665;SDS011;58531;59.050;17.416;2023-04-25T03:53:45;1.80;;;1.40;;
12665;SDS011;58531;59.050;17.416;2023-04-25T03:56:13;2.10;;;1.60;;
12665;SDS011;58531;59.050;17.416;2023-04-25T03:58:40;1.77;;;1.27;;
12665;SDS011;58531;59.050;17.416;2023-04-25T04:01:06;1.90;;;1.60;;
12665;SDS011;58531;59.050;17.416;2023-04-25T04:03:33;2.33;;;1.60;;
12665;SDS011;58531;59.050;17.416;2023-04-25T04:06:01;2.87;;;2.20;;
12665;SDS011;58531;59.050;17.416;2023-04-25T04:08:29;3.20;;;2.30;;
12665;SDS011;58531;59.050;17.416;2023-04-25T04:10:56;3.27;;;2.30;;
12665;SDS011;58531;59.050;17.416;2023-04-25T04:13:25;4.33;;;2.60;;
12665;SDS011;58531;59.050;17.416;2023-04-25T04:15:52;2.53;;;2.33;;
12665;SDS011;58531;59.050;17.416;2023-04-25T04:18:20;4.00;;;2.77;;
12665;SDS011;58531;59.050;17.416;2023-04-25T04:20:47;3.60;;;2.70;;
12665;SDS011;58531;59.050;17.416;2023-04-25T04:23:14;2.97;;;2.37;;
12665;SDS011;58531;59.050;17.416;2023-04-25T04:25:41;3.10;;;2.63;;
12665;SDS011;58531;59.050;17.416;2023-04-25T04:28:08;5.17;;;2.77;;
12665;SDS011;58531;59.050;17.416;2023-04-25T04:30:37;3.90;;;2.53;;
12665;SDS011;58531;59.050;17.416;2023-04-25T04:33:04;3.93;;;2.53;;
12665;SDS011;58531;59.050;17.416;2023-04-25T04:35:32;3.20;;;2.57;;
12665;SDS011;58531;59.050;17.416;2023-04-25T04:37:59;3.90;;;3.13;;
12665;SDS011;58531;59.050;17.416;2023-04-25T04:40:26;4.93;;;3.00;;
12665;SDS011;58531;59.050;17.416;2023-04-25T04:42:52;4.40;;;3.03;;
12665;SDS011;58531;59.050;17.416;2023-04-25T04:45:21;4.53;;;3.10;;
12665;SDS011;58531;59.050;17.416;2023-04-25T04:47:50;5.50;;;2.97;;
12665;SDS011;58531;59.050;17.416;2023-04-25T04:50:17;5.10;;;3.30;;
12665;SDS011;58531;59.050;17.416;2023-04-25T04:52:44;4.40;;;3.63;;
12665;SDS011;58531;59.050;17.416;2023-04-25T04:55:11;4.73;;;3.43;;
12665;SDS011;58531;59.050;17.416;2023-04-25T04:57:37;5.90;;;3.90;;
12665;SDS011;58531;59.050;17.416;2023-04-25T05:00:05;6.27;;;3.80;;
12665;SDS011;58531;59.050;17.416;2023-04-25T05:02:36;5.40;;;3.50;;
12665;SDS011;58531;59.050;17.416;2023-04-25T05:05:05;6.67;;;4.10;;
12665;SDS011;58531;59.050;17.416;2023-04-25T05:07:33;6.07;;;4.40;;
12665;SDS011;58531;59.050;17.416;2023-04-25T05:09:59;8.47;;;3.70;;
12665;SDS011;58531;59.050;17.416;2023-04-25T05:12:26;10.90;;;3.70;;
12665;SDS011;58531;59.050;17.416;2023-04-25T05:14:53;7.63;;;3.77;;
12665;SDS011;58531;59.050;17.416;2023-04-25T05:17:20;7.20;;;4.07;;
12665;SDS011;58531;59.050;17.416;2023-04-25T05:19:47;7.23;;;4.10;;
12665;SDS011;58531;59.050;17.416;2023-04-25T05:22:15;11.90;;;4.40;;
12665;SDS011;58531;59.050;17.416;2023-04-25T05:24:42;10.23;;;4.67;;
12665;SDS011;58531;59.050;17.416;2023-04-25T05:27:09;12.27;;;4.73;;
12665;SDS011;58531;59.050;17.416;2023-04-25T05:29:36;10.13;;;4.90;;
12665;SDS011;58531;59.050;17.416;2023-04-25T05:32:03;10.20;;;4.93;;
12665;SDS011;58531;59.050;17.416;2023-04-25T05:34:32;10.97;;;4.97;;
12665;SDS011;58531;59.050;17.416;2023-04-25T05:36:59;13.70;;;5.17;;
12665;SDS011;58531;59.050;17.416;2023-04-25T05:39:27;25.80;;;5.77;;
12665;SDS011;58531;59.050;17.416;2023-04-25T05:41:54;16.57;;;6.80;;
12665;SDS011;58531;59.050;17.416;2023-04-25T05:44:21;14.27;;;5.30;;
12665;SDS011;58531;59.050;17.416;2023-04-25T05:46:48;14.33;;;6.07;;
12665;SDS011;58531;59.050;17.416;2023-04-25T05:49:15;18.07;;;5.67;;
12665;SDS011;58531;59.050;17.416;2023-04-25T05:51:42;15.30;;;6.40;;
12665;SDS011;58531;59.050;17.416;2023-04-25T05:54:08;12.93;;;5.67;;
12665;SDS011;58531;59.050;17.416;2023-04-25T05:56:37;21.80;;;6.67;;
12665;SDS011;58531;59.050;17.416;2023-04-25T05:59:04;17.67;;;6.13;;
12665;SDS011;58531;59.050;17.416;2023-04-25T06:01:31;17.57;;;6.63;;
12665;SDS011;58531;59.050;17.416;2023-04-25T06:03:57;15.27;;;6.37;;
12665;SDS011;58531;59.050;17.416;2023-04-25T06:06:24;14.70;;;6.53;;
12665;SDS011;58531;59.050;17.416;2023-04-25T06:08:51;19.27;;;6.17;;
12665;SDS011;58531;59.050;17.416;2023-04-25T06:11:18;24.27;;;7.30;;
12665;SDS011;58531;59.050;17.416;2023-04-25T06:13:47;23.40;;;6.60;;
12665;SDS011;58531;59.050;17.416;2023-04-25T06:16:13;18.83;;;6.03;;
12665;SDS011;58531;59.050;17.416;2023-04-25T06:18:40;16.77;;;5.23;;
12665;SDS011;58531;59.050;17.416;2023-04-25T06:21:07;13.53;;;5.40;;
12665;SDS011;58531;59.050;17.416;2023-04-25T06:23:34;15.37;;;5.80;;
12665;SDS011;58531;59.050;17.416;2023-04-25T06:26:01;12.40;;;6.30;;
12665;SDS011;58531;59.050;17.416;2023-04-25T06:28:28;17.17;;;5.93;;
12665;SDS011;58531;59.050;17.416;2023-04-25T06:30:56;20.87;;;6.07;;
12665;SDS011;58531;59.050;17.416;2023-04-25T06:33:23;18.93;;;5.67;;
12665;SDS011;58531;59.050;17.416;2023-04-25T06:35:50;9.70;;;5.57;;
12665;SDS011;58531;59.050;17.416;2023-04-25T06:38:17;12.87;;;6.23;;
12665;SDS011;58531;59.050;17.416;2023-04-25T06:40:44;15.83;;;5.47;;
12665;SDS011;58531;59.050;17.416;2023-04-25T06:43:10;8.30;;;4.83;;
12665;SDS011;58531;59.050;17.416;2023-04-25T06:45:37;11.60;;;5.00;;
12665;SDS011;58531;59.050;17.416;2023-04-25T06:48:05;9.97;;;5.33;;
12665;SDS011;58531;59.050;17.416;2023-04-25T06:50:33;10.03;;;5.27;;
12665;SDS011;58531;59.050;17.416;2023-04-25T06:53:00;13.80;;;6.20;;
12665;SDS011;58531;59.050;17.416;2023-04-25T06:55:27;11.30;;;5.27;;
12665;SDS011;58531;59.050;17.416;2023-04-25T06:57:55;9.07;;;5.07;;
12665;SDS011;58531;59.050;17.416;2023-04-25T07:00:21;12.30;;;4.43;;
12665;SDS011;58531;59.050;17.416;2023-04-25T07:02:48;6.83;;;4.73;;
12665;SDS011;58531;59.050;17.416;2023-04-25T07:05:17;8.33;;;4.70;;
12665;SDS011;58531;59.050;17.416;2023-04-25T07:07:43;8.57;;;4.13;;
12665;SDS011;58531;59.050;17.416;2023-04-25T07:10:10;6.33;;;4.07;;
12665;SDS011;58531;59.050;17.416;2023-04-25T07:12:37;10.47;;;5.00;;
12665;SDS011;58531;59.050;17.416;2023-04-25T07:15:04;8.33;;;4.67;;
12665;SDS011;58531;59.050;17.416;2023-04-25T07:17:35;9.47;;;4.73;;
12665;SDS011;58531;59.050;17.416;2023-04-25T07:20:01;6.00;;;3.90;;
12665;SDS011;58531;59.050;17.416;2023-04-25T07:22:32;7.50;;;3.87;;
12665;SDS011;58531;59.050;17.416;2023-04-25T07:24:59;6.37;;;3.93;;
12665;SDS011;58531;59.050;17.416;2023-04-25T07:27:26;6.50;;;3.80;;
12665;SDS011;58531;59.050;17.416;2023-04-25T07:29:53;4.30;;;3.10;;
12665;SDS011;58531;59.050;17.416;2023-04-25T07:32:20;4.17;;;3.33;;
12665;SDS011;58531;59.050;17.416;2023-04-25T07:34:47;4.37;;;3.50;;
12665;SDS011;58531;59.050;17.416;2023-04-25T07:37:14;6.63;;;3.50;;
12665;SDS011;58531;59.050;17.416;2023-04-25T07:39:42;4.27;;;3.47;;
12665;SDS011;58531;59.050;17.416;2023-04-25T07:42:11;3.87;;;3.20;;
12665;SDS011;58531;59.050;17.416;2023-04-25T07:44:37;4.77;;;3.43;;
12665;SDS011;58531;59.050;17.416;2023-04-25T07:47:05;3.97;;;3.30;;
12665;SDS011;58531;59.050;17.416;2023-04-25T07:49:33;5.00;;;3.87;;
12665;SDS011;58531;59.050;17.416;2023-04-25T07:52:00;6.43;;;3.63;;
12665;SDS011;58531;59.050;17.416;2023-04-25T07:54:28;4.30;;;3.67;;
12665;SDS011;58531;59.050;17.416;2023-04-25T07:56:56;4.73;;;3.73;;
12665;SDS011;58531;59.050;17.416;2023-04-25T07:59:23;5.53;;;3.47;;
12665;SDS011;58531;59.050;17.416;2023-04-25T08:01:50;3.87;;;3.47;;
12665;SDS011;58531;59.050;17.416;2023-04-25T08:04:16;5.70;;;4.03;;
12665;SDS011;58531;59.050;17.416;2023-04-25T08:06:43;6.17;;;4.57;;
12665;SDS011;58531;59.050;17.416;2023-04-25T08:09:10;6.53;;;4.57;;
12665;SDS011;58531;59.050;17.416;2023-04-25T08:11:37;6.13;;;4.30;;
12665;SDS011;58531;59.050;17.416;2023-04-25T08:14:06;7.03;;;3.73;;
12665;SDS011;58531;59.050;17.416;2023-04-25T08:16:32;6.13;;;4.43;;
12665;SDS011;58531;59.050;17.416;2023-04-25T08:19:00;5.37;;;4.03;;
12665;SDS011;58531;59.050;17.416;2023-04-25T08:21:27;6.17;;;3.37;;
12665;SDS011;58531;59.050;17.416;2023-04-25T08:23:53;4.90;;;3.73;;
12665;SDS011;58531;59.050;17.416;2023-04-25T08:26:20;4.23;;;3.50;;
12665;SDS011;58531;59.050;17.416;2023-04-25T08:28:47;4.40;;;3.37;;
12665;SDS011;58531;59.050;17.416;2023-04-25T08:31:15;4.77;;;3.07;;
12665;SDS011;58531;59.050;17.416;2023-04-25T08:33:42;3.27;;;2.70;;
12665;SDS011;58531;59.050;17.416;2023-04-25T08:36:09;4.57;;;3.20;;
12665;SDS011;58531;59.050;17.416;2023-04-25T08:38:36;2.90;;;2.60;;
12665;SDS011;58531;59.050;17.416;2023-04-25T08:41:03;3.10;;;2.80;;
12665;SDS011;58531;59.050;17.416;2023-04-25T08:43:32;4.67;;;3.07;;
12665;SDS011;58531;59.050;17.416;2023-04-25T08:46:01;3.83;;;2.73;;
12665;SDS011;58531;59.050;17.416;2023-04-25T08:48:31;3.63;;;3.17;;
12665;SDS011;58531;59.050;17.416;2023-04-25T08:50:59;5.03;;;3.20;;
12665;SDS011;58531;59.050;17.416;2023-04-25T08:53:29;3.97;;;2.77;;
12665;SDS011;58531;59.050;17.416;2023-04-25T08:55:58;2.83;;;2.17;;
12665;SDS011;58531;59.050;17.416;2023-04-25T08:58:27;3.23;;;2.57;;
12665;SDS011;58531;59.050;17.416;2023-04-25T09:00:54;4.07;;;2.83;;
12665;SDS011;58531;59.050;17.416;2023-04-25T09:03:21;3.23;;;2.63;;
12665;SDS011;58531;59.050;17.416;2023-04-25T09:05:49;3.23;;;2.63;;
12665;SDS011;58531;59.050;17.416;2023-04-25T09:08:17;3.70;;;2.93;;
12665;SDS011;58531;59.050;17.416;2023-04-25T09:10:44;3.50;;;2.47;;
12665;SDS011;58531;59.050;17.416;2023-04-25T09:13:12;2.20;;;1.87;;
12665;SDS011;58531;59.050;17.416;2023-04-25T09:15:47;2.53;;;2.33;;
12665;SDS011;58531;59.050;17.416;2023-04-25T09:18:21;1.97;;;1.67;;
12665;SDS011;58531;59.050;17.416;2023-04-25T09:20:50;1.93;;;1.73;;
12665;SDS011;58531;59.050;17.416;2023-04-25T09:23:18;2.10;;;1.90;;
12665;SDS011;58531;59.050;17.416;2023-04-25T09:25:46;2.23;;;2.03;;
12665;SDS011;58531;59.050;17.416;2023-04-25T09:28:14;2.40;;;2.00;;
12665;SDS011;58531;59.050;17.416;2023-04-25T09:30:41;2.20;;;2.00;;
12665;SDS011;58531;59.050;17.416;2023-04-25T09:33:08;2.20;;;1.97;;
12665;SDS011;58531;59.050;17.416;2023-04-25T09:35:36;2.90;;;2.27;;
12665;SDS011;58531;59.050;17.416;2023-04-25T09:38:10;2.60;;;2.40;;
12665;SDS011;58531;59.050;17.416;2023-04-25T09:40:41;2.40;;;2.20;;
12665;SDS011;58531;59.050;17.416;2023-04-25T09:43:09;2.53;;;2.10;;
12665;SDS011;58531;59.050;17.416;2023-04-25T09:45:43;2.83;;;2.13;;
12665;SDS011;58531;59.050;17.416;2023-04-25T09:48:11;1.97;;;1.77;;
12665;SDS011;58531;59.050;17.416;2023-04-25T09:50:38;2.43;;;1.93;;
12665;SDS011;58531;59.050;17.416;2023-04-25T09:53:05;1.70;;;1.60;;
12665;SDS011;58531;59.050;17.416;2023-04-25T09:55:34;1.83;;;1.73;;
12665;SDS011;58531;59.050;17.416;2023-04-25T09:58:03;2.03;;;1.83;;
12665;SDS011;58531;59.050;17.416;2023-04-25T10:00:32;1.53;;;1.43;;
12665;SDS011;58531;59.050;17.416;2023-04-25T10:03:00;2.10;;;1.90;;
12665;SDS011;58531;59.050;17.416;2023-04-25T10:05:30;2.00;;;1.90;;
12665;SDS011;58531;59.050;17.416;2023-04-25T10:07:58;2.10;;;1.90;;
12665;SDS011;58531;59.050;17.416;2023-04-25T10:10:28;2.20;;;2.00;;
12665;SDS011;58531;59.050;17.416;2023-04-25T10:13:03;1.90;;;1.70;;
12665;SDS011;58531;59.050;17.416;2023-04-25T10:15:31;2.30;;;2.10;;
12665;SDS011;58531;59.050;17.416;2023-04-25T10:18:01;2.93;;;2.20;;
12665;SDS011;58531;59.050;17.416;2023-04-25T10:20:28;2.90;;;2.70;;
12665;SDS011;58531;59.050;17.416;2023-04-25T10:22:57;2.67;;;2.37;;
12665;SDS011;58531;59.050;17.416;2023-04-25T10:25:30;2.27;;;2.07;;
12665;SDS011;58531;59.050;17.416;2023-04-25T10:27:57;2.20;;;1.63;;
12665;SDS011;58531;59.050;17.416;2023-04-25T10:30:27;2.07;;;1.87;;
12665;SDS011;58531;59.050;17.416;2023-04-25T10:32:54;2.50;;;2.30;;
12665;SDS011;58531;59.050;17.416;2023-04-25T10:35:24;2.30;;;2.10;;
12665;SDS011;58531;59.050;17.416;2023-04-25T10:38:02;1.70;;;1.60;;
12665;SDS011;58531;59.050;17.416;2023-04-25T10:40:30;2.20;;;2.00;;
12665;SDS011;58531;59.050;17.416;2023-04-25T10:46:03;2.63;;;2.40;;
12665;SDS011;58531;59.050;17.416;2023-04-25T10:48:43;2.23;;;2.03;;
12665;SDS011;58531;59.050;17.416;2023-04-25T10:51:16;1.73;;;1.63;;
12665;SDS011;58531;59.050;17.416;2023-04-25T10:53:44;2.40;;;2.20;;
12665;SDS011;58531;59.050;17.416;2023-04-25T10:56:11;3.23;;;2.30;;
12665;SDS011;58531;59.050;17.416;2023-04-25T10:58:43;2.70;;;2.37;;
12665;SDS011;58531;59.050;17.416;2023-04-25T11:01:13;2.83;;;2.20;;
12665;SDS011;58531;59.050;17.416;2023-04-25T11:03:41;2.30;;;1.80;;
12665;SDS011;58531;59.050;17.416;2023-04-25T11:06:12;2.60;;;2.40;;
12665;SDS011;58531;59.050;17.416;2023-04-25T11:08:47;2.53;;;2.33;;
12665;SDS011;58531;59.050;17.416;2023-04-25T11:11:16;2.77;;;2.57;;
12665;SDS011;58531;59.050;17.416;2023-04-25T11:13:43;2.50;;;2.30;;
12665;SDS011;58531;59.050;17.416;2023-04-25T11:16:10;3.13;;;2.83;;
12665;SDS011;58531;59.050;17.416;2023-04-25T11:18:40;2.50;;;2.30;;
12665;SDS011;58531;59.050;17.416;2023-04-25T11:21:07;2.60;;;2.40;;
12665;SDS011;58531;59.050;17.416;2023-04-25T11:23:34;2.60;;;2.40;;
12665;SDS011;58531;59.050;17.416;2023-04-25T11:26:01;2.80;;;2.50;;
12665;SDS011;58531;59.050;17.416;2023-04-25T11:28:28;2.83;;;2.53;;
12665;SDS011;58531;59.050;17.416;2023-04-25T11:30:55;2.73;;;2.53;;
12665;SDS011;58531;59.050;17.416;2023-04-25T11:33:23;3.60;;;2.63;;
12665;SDS011;58531;59.050;17.416;2023-04-25T11:35:52;2.37;;;2.17;;
12665;SDS011;58531;59.050;17.416;2023-04-25T11:38:20;2.60;;;2.40;;
12665;SDS011;58531;59.050;17.416;2023-04-25T11:40:49;2.30;;;2.10;;
12665;SDS011;58531;59.050;17.416;2023-04-25T11:43:17;2.23;;;2.03;;
12665;SDS011;58531;59.050;17.416;2023-04-25T11:45:46;2.83;;;2.30;;
12665;SDS011;58531;59.050;17.416;2023-04-25T11:48:13;2.57;;;2.37;;
12665;SDS011;58531;59.050;17.416;2023-04-25T11:50:41;2.60;;;2.40;;
12665;SDS011;58531;59.050;17.416;2023-04-25T11:53:09;3.10;;;2.40;;
12665;SDS011;58531;59.050;17.416;2023-04-25T11:55:36;2.70;;;2.50;;
12665;SDS011;58531;59.050;17.416;2023-04-25T11:58:03;3.00;;;2.23;;
12665;SDS011;58531;59.050;17.416;2023-04-25T12:00:31;2.83;;;2.53;;
12665;SDS011;58531;59.050;17.416;2023-04-25T12:02:58;2.50;;;2.30;;
12665;SDS011;58531;59.050;17.416;2023-04-25T12:05:25;2.70;;;2.50;;
12665;SDS011;58531;59.050;17.416;2023-04-25T12:07:55;2.63;;;2.43;;
12665;SDS011;58531;59.050;17.416;2023-04-25T12:10:24;3.10;;;2.57;;
12665;SDS011;58531;59.050;17.416;2023-04-25T12:12:51;2.70;;;2.50;;
12665;SDS011;58531;59.050;17.416;2023-04-25T12:15:22;2.93;;;2.60;;
12665;SDS011;58531;59.050;17.416;2023-04-25T12:17:50;2.90;;;2.60;;
12665;SDS011;58531;59.050;17.416;2023-04-25T12:20:20;3.13;;;2.80;;
12665;SDS011;58531;59.050;17.416;2023-04-25T12:22:49;4.13;;;3.50;;
12665;SDS011;58531;59.050;17.416;2023-04-25T12:28:09;7.40;;;6.10;;
12665;SDS011;58531;59.050;17.416;2023-04-25T12:30:52;6.47;;;5.50;;
12665;SDS011;58531;59.050;17.416;2023-04-25T12:33:20;4.47;;;4.00;;
12665;SDS011;58531;59.050;17.416;2023-04-25T12:35:47;3.57;;;3.27;;
12665;SDS011;58531;59.050;17.416;2023-04-25T12:38:20;4.27;;;3.87;;
12665;SDS011;58531;59.050;17.416;2023-04-25T12:40:49;4.27;;;3.00;;
12665;SDS011;58531;59.050;17.416;2023-04-25T12:43:16;3.43;;;3.13;;
12665;SDS011;58531;59.050;17.416;2023-04-25T12:45:43;3.97;;;3.50;;
12665;SDS011;58531;59.050;17.416;2023-04-25T12:48:10;4.23;;;3.83;;
12665;SDS011;58531;59.050;17.416;2023-04-25T12:50:37;4.47;;;3.90;;
12665;SDS011;58531;59.050;17.416;2023-04-25T12:53:04;6.27;;;4.50;;
12665;SDS011;58531;59.050;17.416;2023-04-25T12:55:30;4.70;;;4.20;;
12665;SDS011;58531;59.050;17.416;2023-04-25T12:57:59;4.63;;;4.20;;
12665;SDS011;58531;59.050;17.416;2023-04-25T13:00:26;4.80;;;4.20;;
12665;SDS011;58531;59.050;17.416;2023-04-25T13:02:52;6.37;;;4.50;;
12665;SDS011;58531;59.050;17.416;2023-04-25T13:05:19;5.07;;;4.57;;
12665;SDS011;58531;59.050;17.416;2023-04-25T13:07:46;4.17;;;3.77;;
12665;SDS011;58531;59.050;17.416;2023-04-25T13:10:13;9.30;;;8.30;;
12665;SDS011;58531;59.050;17.416;2023-04-25T13:12:40;8.07;;;7.27;;
12665;SDS011;58531;59.050;17.416;2023-04-25T13:15:09;6.47;;;5.77;;
12665;SDS011;58531;59.050;17.416;2023-04-25T13:17:37;5.83;;;5.17;;
12665;SDS011;58531;59.050;17.416;2023-04-25T13:20:04;4.93;;;4.17;;
12665;SDS011;58531;59.050;17.416;2023-04-25T13:22:33;5.63;;;4.30;;
12665;SDS011;58531;59.050;17.416;2023-04-25T13:25:01;4.50;;;4.10;;
12665;SDS011;58531;59.050;17.416;2023-04-25T13:27:29;3.93;;;3.27;;
12665;SDS011;58531;59.050;17.416;2023-04-25T13:29:57;4.67;;;4.03;;
12665;SDS011;58531;59.050;17.416;2023-04-25T13:32:26;4.87;;;3.97;;
12665;SDS011;58531;59.050;17.416;2023-04-25T13:34:53;5.67;;;4.50;;
12665;SDS011;58531;59.050;17.416;2023-04-25T13:37:21;5.23;;;4.20;;
12665;SDS011;58531;59.050;17.416;2023-04-25T13:39:49;6.03;;;4.23;;
12665;SDS011;58531;59.050;17.416;2023-04-25T13:42:16;4.70;;;3.87;;
12665;SDS011;58531;59.050;17.416;2023-04-25T13:44:43;5.93;;;4.73;;
12665;SDS011;58531;59.050;17.416;2023-04-25T13:47:10;5.33;;;4.63;;
12665;SDS011;58531;59.050;17.416;2023-04-25T13:49:38;6.40;;;4.57;;
12665;SDS011;58531;59.050;17.416;2023-04-25T13:52:05;6.40;;;4.00;;
12665;SDS011;58531;59.050;17.416;2023-04-25T13:54:32;5.30;;;3.73;;
12665;SDS011;58531;59.050;17.416;2023-04-25T13:56:59;6.73;;;4.67;;
12665;SDS011;58531;59.050;17.416;2023-04-25T13:59:27;5.57;;;4.00;;
12665;SDS011;58531;59.050;17.416;2023-04-25T14:01:54;5.67;;;3.30;;
12665;SDS011;58531;59.050;17.416;2023-04-25T14:04:21;4.80;;;2.83;;
12665;SDS011;58531;59.050;17.416;2023-04-25T14:06:49;5.00;;;3.67;;
12665;SDS011;58531;59.050;17.416;2023-04-25T14:09:16;3.53;;;2.77;;
12665;SDS011;58531;59.050;17.416;2023-04-25T14:11:43;4.50;;;3.03;;
12665;SDS011;58531;59.050;17.416;2023-04-25T14:14:10;3.83;;;2.30;;
12665;SDS011;58531;59.050;17.416;2023-04-25T14:16:38;4.23;;;2.73;;
12665;SDS011;58531;59.050;17.416;2023-04-25T14:19:05;3.33;;;2.33;;
12665;SDS011;58531;59.050;17.416;2023-04-25T14:21:32;4.27;;;2.60;;
12665;SDS011;58531;59.050;17.416;2023-04-25T14:24:00;2.87;;;2.20;;
12665;SDS011;58531;59.050;17.416;2023-04-25T14:26:27;2.40;;;1.57;;
12665;SDS011;58531;59.050;17.416;2023-04-25T14:28:54;2.63;;;2.07;;
12665;SDS011;58531;59.050;17.416;2023-04-25T14:31:21;2.53;;;1.70;;
12665;SDS011;58531;59.050;17.416;2023-04-25T14:33:47;1.70;;;1.60;;
12665;SDS011;58531;59.050;17.416;2023-04-25T14:36:15;2.10;;;1.63;;
12665;SDS011;58531;59.050;17.416;2023-04-25T14:38:42;1.60;;;1.37;;
12665;SDS011;58531;59.050;17.416;2023-04-25T14:41:10;2.13;;;1.60;;